Terminal Aerodrome Forecast
Issued by NWS

Home | Current Version | Previous Version | Text Only | Print | Product List | Glossary On
Versions: 1 2 3 4 5 6 7 8 9 10 11 12 13 14 15 16 17 18 19 20 21 22 23 24 25 26 27 28 29 30 31 32 33 34 35 36 37 38 39 40 41 42 43 44
000
FTAK31 PANC 121720
TAFADQ
TAF
PADQ 121720Z 1218/1318 13015G22KT 5SM -RA BR SCT015 BKN025
      TEMPO 1218/1221 3SM -RA BR BKN015
     FM122100 14016G25KT 3SM -RA BR BKN015
     FM130200 10010KT P6SM -RA SCT015 BKN025
     FM130700 09018G26KT 3SM -RA BR BKN008
     FM131300 14010G18KT 5SM -RA BR SCT008 BKN012=

USA.gov is the U.S. government's official web portal to all federal, state and local government web resources and services.